Time;durP1;ratioP1;P1;durP2;ratioP2;P2;SDS_P1;SDS_P2;PMS_P1;PMS_P2;Temp;Humidity;BMP_temperature;BMP_pressure;BME280_temperature;BME280_humidity;BME280_pressure;Samples;Min_cycle;Max_cycle;Signal;HPM_P1;HPM_P2
2022/11/18 00:00:53;;;;;;;;;;;9.20;99.90;;;;;;1882424;76;20121;-75
2022/11/18 00:03:20;;;;;;;;;;;9.10;99.90;;;;;;1882328;76;20132;-74
2022/11/18 00:05:54;;;;;;;;;;;9.10;99.90;;;;;;1882388;76;20109;-75
2022/11/18 00:08:21;;;;;;;;;;;9.10;99.90;;;;;;1880889;76;20170;-74
2022/11/18 00:10:48;;;;;;;;;;;9.10;99.90;;;;;;1882867;76;20101;-75
2022/11/18 00:16:04;;;;;;;;;;;9.00;99.90;;;;;;1878618;76;20113;-75
2022/11/18 00:18:30;;;;;;;;;;;9.00;99.90;;;;;;1878053;76;20120;-75
2022/11/18 00:21:04;;;;;;;;;;;9.00;99.90;;;;;;1882804;76;20320;-75
2022/11/18 00:23:30;;;;;;;;;;;9.00;99.90;;;;;;1882817;76;20208;-74
2022/11/18 00:26:07;;;;;;;;;;;9.00;99.90;;;;;;1882627;76;20201;-73
2022/11/18 00:28:34;;;;;;;;;;;9.00;99.90;;;;;;1882456;76;20144;-74
2022/11/18 00:31:02;;;;;;;;;;;9.00;99.90;;;;;;1882658;76;20120;-74
2022/11/18 00:33:30;;;;;;;;;;;9.00;99.90;;;;;;1882715;76;20101;-74
2022/11/18 00:35:57;;;;;;;;;;;9.00;99.90;;;;;;1882672;76;20339;-74
2022/11/18 00:38:24;;;;;;;;;;;9.00;99.90;;;;;;1882709;76;20147;-74
2022/11/18 00:41:01;;;;;;;;;;;9.00;99.90;;;;;;1882565;76;20147;-74
2022/11/18 00:43:28;;;;;;;;;;;9.00;99.90;;;;;;1881113;76;20117;-74
2022/11/18 00:45:55;;;;;;;;;;;8.80;99.90;;;;;;1882709;76;20109;-74
2022/11/18 00:48:22;;;;;;;;;;;8.70;99.90;;;;;;1882663;76;20348;-74
2022/11/18 00:50:49;;;;;;;;;;;8.70;99.90;;;;;;1882975;76;20206;-75
2022/11/18 00:53:16;;;;;;;;;;;8.90;99.90;;;;;;1882733;76;20120;-74
2022/11/18 00:55:43;;;;;;;;;;;8.90;99.90;;;;;;1882628;76;20124;-74
2022/11/18 00:58:13;;;;;;;;;;;8.90;99.90;;;;;;1882737;76;20131;-74
2022/11/18 01:00:38;;;;;;;;;;;8.90;99.90;;;;;;1882454;75;20104;-74
2022/11/18 01:03:05;;;;;;;;;;;9.00;99.90;;;;;;1882625;76;20160;-75
2022/11/18 01:05:32;;;;;;;;;;;8.90;99.90;;;;;;1882601;76;20105;-74
2022/11/18 01:07:58;;;;;;;;;;;8.80;99.90;;;;;;1882652;76;20172;-75
2022/11/18 01:10:26;;;;;;;;;;;8.90;99.90;;;;;;1882649;76;20148;-74
2022/11/18 01:15:41;;;;;;;;;;;8.90;99.90;;;;;;1882620;76;20143;-74
2022/11/18 01:18:08;;;;;;;;;;;8.70;99.90;;;;;;1882561;76;20109;-74
2022/11/18 01:20:35;;;;;;;;;;;8.90;99.90;;;;;;1882636;76;20259;-74
2022/11/18 01:23:01;;;;;;;;;;;8.80;99.90;;;;;;1882505;76;20128;-74
2022/11/18 01:25:28;;;;;;;;;;;8.80;99.90;;;;;;1882596;76;20116;-74
2022/11/18 01:27:55;;;;;;;;;;;8.80;99.90;;;;;;1882699;76;20168;-74
2022/11/18 01:30:22;;;;;;;;;;;8.90;99.90;;;;;;1882670;76;20366;-74
2022/11/18 01:32:49;;;;;;;;;;;8.90;99.90;;;;;;1882686;76;20132;-74
2022/11/18 01:35:15;;;;;;;;;;;8.80;99.90;;;;;;1882306;76;20163;-74
2022/11/18 01:37:42;;;;;;;;;;;8.80;99.90;;;;;;1882530;76;20158;-75
2022/11/18 01:40:09;;;;;;;;;;;8.70;99.90;;;;;;1882359;76;20143;-74
2022/11/18 01:42:37;;;;;;;;;;;8.80;99.90;;;;;;1882382;76;20158;-74
2022/11/18 01:45:08;;;;;;;;;;;8.90;99.90;;;;;;1882460;76;20105;-74
2022/11/18 01:47:35;;;;;;;;;;;8.80;99.90;;;;;;1877811;76;20105;-74
2022/11/18 01:50:02;;;;;;;;;;;8.80;99.90;;;;;;1881595;76;20155;-74
2022/11/18 01:52:29;;;;;;;;;;;8.80;99.90;;;;;;1882344;76;20320;-75
2022/11/18 01:54:57;;;;;;;;;;;8.80;99.90;;;;;;1882535;76;20109;-75
2022/11/18 01:57:26;;;;;;;;;;;8.70;99.90;;;;;;1882644;76;20116;-75
2022/11/18 01:59:52;;;;;;;;;;;8.80;99.90;;;;;;1882319;76;20143;-74
2022/11/18 02:02:19;;;;;;;;;;;8.90;99.90;;;;;;1882527;76;20118;-74
2022/11/18 02:04:47;;;;;;;;;;;8.90;99.90;;;;;;1882277;76;20158;-74
2022/11/18 02:07:14;;;;;;;;;;;9.00;99.90;;;;;;1882587;76;20197;-74
2022/11/18 02:09:40;;;;;;;;;;;9.00;99.90;;;;;;1882315;76;20112;-74
2022/11/18 02:12:07;;;;;;;;;;;8.90;99.90;;;;;;1882539;76;20325;-75
2022/11/18 02:14:35;;;;;;;;;;;8.80;99.90;;;;;;1882431;76;20116;-75
2022/11/18 02:17:09;;;;;;;;;;;8.80;99.90;;;;;;1880758;76;20109;-75
2022/11/18 02:19:44;;;;;;;;;;;8.90;99.90;;;;;;1876774;76;20113;-75
2022/11/18 02:22:24;;;;;;;;;;;8.90;99.90;;;;;;1882315;76;20144;-74
2022/11/18 02:25:04;;;;;;;;;;;8.90;99.90;;;;;;1882346;76;20116;-74
2022/11/18 02:27:42;;;;;;;;;;;8.70;99.90;;;;;;1883422;76;20340;-74
2022/11/18 02:30:10;;;;;;;;;;;8.70;99.90;;;;;;1879344;76;20213;-75
2022/11/18 02:32:41;;;;;;;;;;;8.60;99.90;;;;;;1880603;76;20116;-74
2022/11/18 02:35:22;;;;;;;;;;;8.70;99.90;;;;;;1877228;76;20181;-74
2022/11/18 02:37:50;;;;;;;;;;;8.60;99.90;;;;;;1881421;76;20117;-74
2022/11/18 02:40:18;;;;;;;;;;;8.60;99.90;;;;;;1882340;76;20105;-75
2022/11/18 02:42:45;;;;;;;;;;;8.50;99.90;;;;;;1882162;76;20217;-75
2022/11/18 02:45:12;;;;;;;;;;;8.50;99.90;;;;;;1882258;76;20152;-74
2022/11/18 02:47:39;;;;;;;;;;;8.60;99.90;;;;;;1882385;76;20116;-74
2022/11/18 02:50:07;;;;;;;;;;;8.60;99.90;;;;;;1850666;76;20212;-75
2022/11/18 02:52:34;;;;;;;;;;;8.60;99.90;;;;;;1882308;76;20128;-75
2022/11/18 02:55:01;;;;;;;;;;;8.70;99.90;;;;;;1882375;76;20144;-75
2022/11/18 02:57:29;;;;;;;;;;;8.70;99.90;;;;;;1882280;76;20128;-74
2022/11/18 02:59:55;;;;;;;;;;;8.60;99.90;;;;;;1882451;76;20371;-74
2022/11/18 03:02:22;;;;;;;;;;;8.60;99.90;;;;;;1882407;76;20120;-74
2022/11/18 03:04:49;;;;;;;;;;;8.60;99.90;;;;;;1882406;76;20335;-74
2022/11/18 03:07:27;;;;;;;;;;;8.60;99.90;;;;;;1882383;76;20316;-74
2022/11/18 03:09:54;;;;;;;;;;;8.70;99.90;;;;;;1882464;76;20183;-73
2022/11/18 03:12:38;;;;;;;;;;;8.50;99.90;;;;;;1882436;76;20105;-74
2022/11/18 03:15:10;;;;;;;;;;;8.60;99.90;;;;;;1877710;76;20156;-73
2022/11/18 03:17:44;;;;;;;;;;;8.70;99.90;;;;;;1882574;76;20129;-74
2022/11/18 03:20:12;;;;;;;;;;;8.60;99.90;;;;;;1882461;76;20105;-74
2022/11/18 03:22:47;;;;;;;;;;;8.70;99.90;;;;;;1882133;76;20320;-74
2022/11/18 03:25:15;;;;;;;;;;;8.70;99.90;;;;;;1882463;76;20197;-75
2022/11/18 03:27:50;;;;;;;;;;;8.70;99.90;;;;;;1882239;76;20128;-75
2022/11/18 03:30:17;;;;;;;;;;;8.80;99.90;;;;;;1882457;76;20101;-75
2022/11/18 03:32:45;;;;;;;;;;;8.70;99.90;;;;;;1882568;76;20118;-74
2022/11/18 03:35:13;;;;;;;;;;;8.60;99.90;;;;;;1882376;76;20146;-75
2022/11/18 03:37:39;;;;;;;;;;;8.60;99.90;;;;;;1882336;76;20220;-74
2022/11/18 03:40:08;;;;;;;;;;;8.50;99.90;;;;;;1882363;76;20148;-74
2022/11/18 03:42:35;;;;;;;;;;;8.60;99.90;;;;;;1885470;76;20205;-74
2022/11/18 03:45:09;;;;;;;;;;;8.60;99.90;;;;;;1883432;76;20142;-74
2022/11/18 03:47:38;;;;;;;;;;;8.60;99.90;;;;;;1880715;76;20115;-74
2022/11/18 03:50:09;;;;;;;;;;;8.60;99.90;;;;;;1882456;76;20140;-74
2022/11/18 03:52:36;;;;;;;;;;;8.60;99.90;;;;;;1882306;75;20370;-74
2022/11/18 03:55:04;;;;;;;;;;;8.60;99.90;;;;;;1882342;76;20112;-74
2022/11/18 03:57:32;;;;;;;;;;;8.60;99.90;;;;;;1882218;76;20113;-74
2022/11/18 04:00:01;;;;;;;;;;;8.60;99.90;;;;;;1877567;76;20128;-74
2022/11/18 04:02:27;;;;;;;;;;;8.60;99.90;;;;;;1882286;76;20119;-75
2022/11/18 04:04:54;;;;;;;;;;;8.60;99.90;;;;;;1882256;76;20105;-75
2022/11/18 04:07:25;;;;;;;;;;;8.60;99.90;;;;;;1882366;76;20116;-74
2022/11/18 04:10:06;;;;;;;;;;;8.60;99.90;;;;;;1882391;76;20124;-74
2022/11/18 04:12:33;;;;;;;;;;;8.70;99.90;;;;;;1882124;76;20120;-74
2022/11/18 04:14:59;;;;;;;;;;;8.70;99.90;;;;;;1882392;76;20105;-74
2022/11/18 04:17:27;;;;;;;;;;;8.60;99.90;;;;;;1882423;76;20324;-75
2022/11/18 04:19:53;;;;;;;;;;;8.60;99.90;;;;;;1877149;76;20370;-74
2022/11/18 04:22:20;;;;;;;;;;;8.60;99.90;;;;;;1882311;76;20132;-74
2022/11/18 04:24:47;;;;;;;;;;;8.60;99.90;;;;;;1882367;76;20200;-74
2022/11/18 04:27:14;;;;;;;;;;;8.70;99.90;;;;;;1882446;76;20112;-74
2022/11/18 04:29:40;;;;;;;;;;;8.60;99.90;;;;;;1882336;76;20120;-75
2022/11/18 04:32:09;;;;;;;;;;;8.60;99.90;;;;;;1882445;76;20390;-74
2022/11/18 04:34:35;;;;;;;;;;;8.50;99.90;;;;;;1882474;76;20194;-74
2022/11/18 04:37:02;;;;;;;;;;;8.50;99.90;;;;;;1882392;76;20148;-76
2022/11/18 04:39:29;;;;;;;;;;;8.50;99.90;;;;;;1882455;76;20188;-75
2022/11/18 04:41:55;;;;;;;;;;;8.50;99.90;;;;;;1882402;76;20163;-75
2022/11/18 04:44:23;;;;;;;;;;;8.50;99.90;;;;;;1882326;76;20364;-75
2022/11/18 04:46:49;;;;;;;;;;;8.60;99.90;;;;;;1882239;76;20124;-75
2022/11/18 04:49:16;;;;;;;;;;;8.50;99.90;;;;;;1882413;76;20160;-76
2022/11/18 04:51:43;;;;;;;;;;;8.40;99.90;;;;;;1882462;76;20158;-75
2022/11/18 04:54:09;;;;;;;;;;;8.40;99.90;;;;;;1882297;76;20142;-75
2022/11/18 04:56:36;;;;;;;;;;;8.40;99.90;;;;;;1882353;76;20355;-75
2022/11/18 04:59:03;;;;;;;;;;;8.30;99.90;;;;;;1882459;76;20108;-74
2022/11/18 05:01:30;;;;;;;;;;;8.50;99.90;;;;;;1877038;76;20124;-75
2022/11/18 05:03:56;;;;;;;;;;;8.60;99.90;;;;;;1882442;76;20144;-75
2022/11/18 05:06:23;;;;;;;;;;;8.60;99.90;;;;;;1882297;76;20117;-74
2022/11/18 05:08:50;;;;;;;;;;;8.60;99.90;;;;;;1882276;76;20156;-74
2022/11/18 05:14:01;;;;;;;;;;;8.50;99.90;;;;;;1880873;76;20152;-75
2022/11/18 05:16:28;;;;;;;;;;;8.50;99.90;;;;;;1882297;76;20332;-74
2022/11/18 05:18:54;;;;;;;;;;;8.50;99.90;;;;;;1882264;76;20159;-74
2022/11/18 05:21:21;;;;;;;;;;;8.40;99.90;;;;;;1882452;76;20338;-74
2022/11/18 05:23:48;;;;;;;;;;;8.30;99.90;;;;;;1882250;76;20151;-75
2022/11/18 05:26:14;;;;;;;;;;;8.20;99.90;;;;;;1882330;76;20351;-74
2022/11/18 05:28:41;;;;;;;;;;;8.10;99.90;;;;;;1882371;76;20112;-74
2022/11/18 05:31:09;;;;;;;;;;;8.00;99.90;;;;;;1882258;76;20163;-75
2022/11/18 05:33:35;;;;;;;;;;;8.10;99.90;;;;;;1882439;76;20202;-75
2022/11/18 05:36:04;;;;;;;;;;;8.10;99.90;;;;;;1882387;76;20382;-74
2022/11/18 05:38:31;;;;;;;;;;;8.10;99.90;;;;;;1880709;76;20124;-75
2022/11/18 05:40:58;;;;;;;;;;;8.20;99.90;;;;;;1882424;76;20198;-75
2022/11/18 05:43:26;;;;;;;;;;;8.30;99.90;;;;;;1882286;76;20412;-75
2022/11/18 05:45:52;;;;;;;;;;;8.40;99.90;;;;;;1882373;76;20101;-75
2022/11/18 05:48:19;;;;;;;;;;;8.40;99.90;;;;;;1882382;76;20320;-75
2022/11/18 05:50:47;;;;;;;;;;;8.20;99.90;;;;;;1882283;76;20160;-75
2022/11/18 05:53:14;;;;;;;;;;;8.10;99.90;;;;;;1882299;76;20132;-75
2022/11/18 05:55:59;;;;;;;;;;;8.00;99.90;;;;;;1882314;76;20112;-75
2022/11/18 05:58:25;;;;;;;;;;;7.90;99.90;;;;;;1881268;76;20148;-74
2022/11/18 06:00:53;;;;;;;;;;;7.90;99.90;;;;;;1882373;76;20113;-74
2022/11/18 06:03:27;;;;;;;;;;;7.90;99.90;;;;;;1882328;76;20237;-74
2022/11/18 06:05:54;;;;;;;;;;;8.00;99.90;;;;;;1882037;76;20128;-75
2022/11/18 06:08:20;;;;;;;;;;;7.90;99.90;;;;;;1882272;76;20112;-75
2022/11/18 06:10:47;;;;;;;;;;;7.90;99.90;;;;;;1882383;76;20116;-75
2022/11/18 06:13:15;;;;;;;;;;;7.80;99.90;;;;;;1882259;76;20121;-74
2022/11/18 06:15:42;;;;;;;;;;;7.80;99.90;;;;;;1882261;76;20112;-75
2022/11/18 06:18:13;;;;;;;;;;;7.80;99.90;;;;;;1882302;76;20109;-75
2022/11/18 06:20:40;;;;;;;;;;;7.70;99.90;;;;;;1882012;76;20124;-75
2022/11/18 06:23:06;;;;;;;;;;;7.70;99.90;;;;;;1882033;76;20167;-75
2022/11/18 06:25:33;;;;;;;;;;;7.70;99.90;;;;;;1882374;76;20177;-74
2022/11/18 06:28:00;;;;;;;;;;;7.60;99.90;;;;;;1882466;76;20128;-74
2022/11/18 06:30:27;;;;;;;;;;;7.70;99.90;;;;;;1882301;76;20351;-75
2022/11/18 06:32:54;;;;;;;;;;;7.70;99.90;;;;;;1882355;76;20109;-73
2022/11/18 06:35:20;;;;;;;;;;;7.70;99.90;;;;;;1882426;76;20132;-73
2022/11/18 06:37:47;;;;;;;;;;;7.80;99.90;;;;;;1882286;76;20116;-75
2022/11/18 06:40:14;;;;;;;;;;;7.80;99.90;;;;;;1882501;76;20324;-74
2022/11/18 06:45:25;;;;;;;;;;;7.80;99.90;;;;;;1882353;76;20210;-73
2022/11/18 06:47:53;;;;;;;;;;;7.80;99.90;;;;;;1882318;76;20144;-74
2022/11/18 06:50:20;;;;;;;;;;;7.70;99.90;;;;;;1882009;76;20120;-73
2022/11/18 06:52:47;;;;;;;;;;;7.80;99.90;;;;;;1882316;76;20116;-72
2022/11/18 06:55:13;;;;;;;;;;;7.90;99.90;;;;;;1882503;76;20120;-72
2022/11/18 06:57:40;;;;;;;;;;;7.90;99.90;;;;;;1882375;76;20128;-72
2022/11/18 07:00:07;;;;;;;;;;;8.00;99.90;;;;;;1882293;76;20117;-73
2022/11/18 07:02:37;;;;;;;;;;;8.00;99.90;;;;;;1882233;76;20151;-73
2022/11/18 07:05:04;;;;;;;;;;;8.00;99.90;;;;;;1882195;76;20116;-77
2022/11/18 07:07:30;;;;;;;;;;;8.00;99.90;;;;;;1882106;76;20328;-73
2022/11/18 07:09:57;;;;;;;;;;;8.00;99.90;;;;;;1882422;76;20125;-71
2022/11/18 07:12:24;;;;;;;;;;;8.10;99.90;;;;;;1882269;76;20352;-72
2022/11/18 07:14:51;;;;;;;;;;;8.10;99.90;;;;;;1882312;76;20105;-70
2022/11/18 07:17:17;;;;;;;;;;;8.10;99.90;;;;;;1882324;76;20150;-72
2022/11/18 07:19:44;;;;;;;;;;;8.10;99.90;;;;;;1882359;76;20116;-73
2022/11/18 07:22:11;;;;;;;;;;;8.00;99.90;;;;;;1882287;76;20182;-70
2022/11/18 07:24:37;;;;;;;;;;;8.20;99.90;;;;;;1882265;76;20158;-73
2022/11/18 07:27:04;;;;;;;;;;;8.30;99.90;;;;;;1882560;76;20116;-73
2022/11/18 07:29:31;;;;;;;;;;;8.30;99.90;;;;;;1882424;76;20112;-75
2022/11/18 07:31:57;;;;;;;;;;;8.30;99.90;;;;;;1882229;76;20117;-75
2022/11/18 07:34:24;;;;;;;;;;;8.40;99.90;;;;;;1882513;76;20142;-73
2022/11/18 07:36:51;;;;;;;;;;;8.40;99.90;;;;;;1882598;76;20128;-75
2022/11/18 07:39:18;;;;;;;;;;;8.50;99.90;;;;;;1882540;76;20121;-75
2022/11/18 07:41:44;;;;;;;;;;;8.50;99.90;;;;;;1882263;76;20183;-75
2022/11/18 07:44:11;;;;;;;;;;;8.50;99.90;;;;;;1882367;76;20140;-74
2022/11/18 07:46:38;;;;;;;;;;;8.60;99.90;;;;;;1882444;76;20339;-74
2022/11/18 07:49:05;;;;;;;;;;;8.60;99.90;;;;;;1882320;76;20124;-74
2022/11/18 07:51:33;;;;;;;;;;;8.60;99.90;;;;;;1882370;76;20158;-73
2022/11/18 07:54:00;;;;;;;;;;;8.60;99.90;;;;;;1882449;76;20145;-74
2022/11/18 07:56:27;;;;;;;;;;;8.60;99.90;;;;;;1882244;76;20383;-73
2022/11/18 07:58:54;;;;;;;;;;;8.70;99.90;;;;;;1882375;76;20120;-73
2022/11/18 08:01:21;;;;;;;;;;;8.70;99.90;;;;;;1882369;76;20150;-74
2022/11/18 08:03:48;;;;;;;;;;;8.70;99.90;;;;;;1882177;76;20147;-74
2022/11/18 08:06:16;;;;;;;;;;;8.40;99.90;;;;;;1882395;76;20109;-75
2022/11/18 08:08:43;;;;;;;;;;;8.50;99.90;;;;;;1882550;76;20120;-74
2022/11/18 08:11:11;;;;;;;;;;;8.60;99.90;;;;;;1885407;76;20340;-75
2022/11/18 08:13:38;;;;;;;;;;;8.70;99.90;;;;;;1882463;76;20105;-74
2022/11/18 08:16:05;;;;;;;;;;;8.80;99.90;;;;;;1882350;76;20105;-75
2022/11/18 08:18:32;;;;;;;;;;;8.80;99.90;;;;;;1855598;76;20156;-74
2022/11/18 08:21:02;;;;;;;;;;;8.80;99.90;;;;;;1882344;76;20347;-74
2022/11/18 08:23:29;;;;;;;;;;;8.90;99.90;;;;;;1882304;76;20359;-75
2022/11/18 08:25:57;;;;;;;;;;;8.80;99.90;;;;;;1882466;76;20116;-74
2022/11/18 08:28:24;;;;;;;;;;;8.80;99.90;;;;;;1881803;76;20336;-74
2022/11/18 08:30:51;;;;;;;;;;;8.70;99.90;;;;;;1882269;76;20175;-71
2022/11/18 08:33:17;;;;;;;;;;;8.80;99.90;;;;;;1882384;76;20328;-75
2022/11/18 08:35:44;;;;;;;;;;;8.70;99.90;;;;;;1882392;76;20116;-75
2022/11/18 08:38:11;;;;;;;;;;;8.80;99.90;;;;;;1882104;76;20355;-75
2022/11/18 08:40:39;;;;;;;;;;;8.80;99.90;;;;;;1882262;76;20124;-74
2022/11/18 08:43:05;;;;;;;;;;;8.80;99.90;;;;;;1882376;76;20135;-73
2022/11/18 08:45:32;;;;;;;;;;;9.10;99.90;;;;;;1882248;76;20151;-74
2022/11/18 08:47:59;;;;;;;;;;;9.00;99.90;;;;;;1882276;76;20147;-73
2022/11/18 08:50:25;;;;;;;;;;;8.90;99.90;;;;;;1882430;76;20178;-74
2022/11/18 08:52:52;;;;;;;;;;;9.10;99.90;;;;;;1882289;76;20336;-74
2022/11/18 08:55:19;;;;;;;;;;;9.10;99.90;;;;;;1882274;76;20220;-75
2022/11/18 08:57:46;;;;;;;;;;;9.10;99.90;;;;;;1882187;76;20336;-75
2022/11/18 09:00:13;;;;;;;;;;;9.20;99.90;;;;;;1882249;76;20351;-74
2022/11/18 09:02:40;;;;;;;;;;;9.10;99.90;;;;;;1882274;76;20316;-74
2022/11/18 09:05:07;;;;;;;;;;;9.10;99.90;;;;;;1882241;76;20148;-73
2022/11/18 09:07:33;;;;;;;;;;;9.30;99.90;;;;;;1882195;76;20116;-74
2022/11/18 09:10:00;;;;;;;;;;;9.10;99.90;;;;;;1882251;76;20147;-73
2022/11/18 09:12:27;;;;;;;;;;;9.10;99.90;;;;;;1882278;76;20168;-74
2022/11/18 09:14:53;;;;;;;;;;;9.20;99.90;;;;;;1882246;76;20186;-75
2022/11/18 09:17:20;;;;;;;;;;;9.20;99.90;;;;;;1882287;76;20178;-74
2022/11/18 09:19:47;;;;;;;;;;;9.20;99.90;;;;;;1882298;76;20179;-75
2022/11/18 09:22:14;;;;;;;;;;;9.20;99.90;;;;;;1882296;76;20120;-75
2022/11/18 09:24:42;;;;;;;;;;;9.30;99.90;;;;;;1882264;76;20116;-76
2022/11/18 09:27:09;;;;;;;;;;;9.30;99.90;;;;;;1882203;76;20146;-74
2022/11/18 09:29:35;;;;;;;;;;;9.30;99.90;;;;;;1882257;76;20120;-74
2022/11/18 09:32:02;;;;;;;;;;;9.40;99.90;;;;;;1882280;76;20166;-74
2022/11/18 09:34:29;;;;;;;;;;;9.40;99.90;;;;;;1882254;76;20173;-74
2022/11/18 09:36:55;;;;;;;;;;;9.60;99.90;;;;;;1882264;76;20128;-74
2022/11/18 09:39:25;;;;;;;;;;;9.60;99.90;;;;;;1882209;76;20148;-75
2022/11/18 09:41:56;;;;;;;;;;;9.60;99.90;;;;;;1879279;76;20159;-75
2022/11/18 09:44:36;;;;;;;;;;;9.50;99.90;;;;;;1881895;76;20383;-74
2022/11/18 09:47:20;;;;;;;;;;;9.20;99.90;;;;;;1879998;76;20151;-76
2022/11/18 09:49:47;;;;;;;;;;;9.00;99.90;;;;;;1880708;76;20152;-75
2022/11/18 09:52:18;;;;;;;;;;;8.90;99.90;;;;;;1850561;76;20325;-76
2022/11/18 09:54:45;;;;;;;;;;;9.00;99.90;;;;;;1882449;76;20116;-74
2022/11/18 09:57:15;;;;;;;;;;;9.20;99.90;;;;;;1882220;76;20378;-74
2022/11/18 09:59:42;;;;;;;;;;;9.20;99.90;;;;;;1882302;76;20126;-74
2022/11/18 10:02:27;;;;;;;;;;;9.40;99.90;;;;;;1881716;75;20178;-75
2022/11/18 10:04:58;;;;;;;;;;;9.50;99.90;;;;;;1885292;76;20342;-75
2022/11/18 10:07:33;;;;;;;;;;;9.20;99.90;;;;;;1877075;75;20132;-76
2022/11/18 10:09:59;;;;;;;;;;;9.20;99.90;;;;;;1877724;75;20155;-74
2022/11/18 10:12:28;;;;;;;;;;;9.10;99.90;;;;;;1879830;76;20104;-75
2022/11/18 10:15:02;;;;;;;;;;;9.10;99.90;;;;;;1880211;76;20117;-74
2022/11/18 10:17:40;;;;;;;;;;;9.00;99.90;;;;;;1883588;76;20117;-74
2022/11/18 10:20:25;;;;;;;;;;;9.00;99.90;;;;;;1883242;76;20159;-75
2022/11/18 10:23:09;;;;;;;;;;;9.00;99.90;;;;;;1882160;76;20146;-75
2022/11/18 10:25:36;;;;;;;;;;;9.00;99.90;;;;;;1881017;76;20109;-74
2022/11/18 10:28:16;;;;;;;;;;;9.10;99.90;;;;;;1877380;76;20101;-74
2022/11/18 10:30:43;;;;;;;;;;;9.30;99.90;;;;;;1877382;76;20163;-74
2022/11/18 10:33:20;;;;;;;;;;;9.60;99.90;;;;;;1882298;76;20109;-75
2022/11/18 10:35:47;;;;;;;;;;;9.50;99.90;;;;;;1879190;76;20374;-74
2022/11/18 10:38:15;;;;;;;;;;;9.80;99.90;;;;;;1885190;76;20121;-75
2022/11/18 10:40:53;;;;;;;;;;;9.90;99.90;;;;;;1880028;76;20198;-75
2022/11/18 10:43:38;;;;;;;;;;;9.90;99.90;;;;;;1880064;76;20319;-74
2022/11/18 10:46:24;;;;;;;;;;;9.90;99.90;;;;;;1880989;76;20106;-74
2022/11/18 10:49:11;;;;;;;;;;;9.90;99.90;;;;;;1881841;76;20124;-76
2022/11/18 10:51:45;;;;;;;;;;;9.80;99.90;;;;;;1876587;76;20147;-74
2022/11/18 10:54:14;;;;;;;;;;;9.70;99.90;;;;;;1880036;76;20209;-74
2022/11/18 10:56:57;;;;;;;;;;;9.90;99.90;;;;;;1879117;76;20120;-74
2022/11/18 10:59:34;;;;;;;;;;;10.10;99.90;;;;;;1878106;76;20438;-74
2022/11/18 11:02:03;;;;;;;;;;;10.40;99.90;;;;;;1883562;76;20105;-73
2022/11/18 11:04:29;;;;;;;;;;;10.80;99.90;;;;;;1878248;76;20305;-73
2022/11/18 11:06:57;;;;;;;;;;;11.00;99.90;;;;;;1883946;76;20120;-72
2022/11/18 11:09:30;;;;;;;;;;;11.00;99.90;;;;;;1880023;76;20121;-73
2022/11/18 11:11:58;;;;;;;;;;;10.90;99.90;;;;;;1881206;76;20112;-76
2022/11/18 11:14:26;;;;;;;;;;;10.90;99.90;;;;;;1879038;76;20155;-78
2022/11/18 11:16:55;;;;;;;;;;;11.00;99.90;;;;;;1880960;76;20147;-79
2022/11/18 11:19:23;;;;;;;;;;;10.80;99.90;;;;;;1871672;76;20525;-82
2022/11/18 11:21:50;;;;;;;;;;;10.40;99.90;;;;;;1880570;76;20347;-80
2022/11/18 11:24:17;;;;;;;;;;;10.30;99.90;;;;;;1882044;76;20406;-82
2022/11/18 11:26:48;;;;;;;;;;;10.40;99.90;;;;;;1877911;76;20143;-81
2022/11/18 11:29:28;;;;;;;;;;;10.30;99.90;;;;;;1882411;73;20154;-80
2022/11/18 11:31:57;;;;;;;;;;;10.00;99.90;;;;;;1879926;76;20387;-80
2022/11/18 11:34:31;;;;;;;;;;;9.80;99.90;;;;;;1880067;75;20156;-80
2022/11/18 11:37:06;;;;;;;;;;;9.80;99.90;;;;;;1881430;76;20156;-81
2022/11/18 11:39:49;;;;;;;;;;;9.70;99.90;;;;;;1879994;76;20146;-81
2022/11/18 11:42:33;;;;;;;;;;;9.70;99.90;;;;;;1878933;75;20156;-83
2022/11/18 11:45:07;;;;;;;;;;;9.70;99.90;;;;;;1881293;76;20116;-80
2022/11/18 11:47:48;;;;;;;;;;;9.80;99.90;;;;;;1878452;76;20162;-80
2022/11/18 11:50:20;;;;;;;;;;;9.90;99.90;;;;;;1874643;76;20120;-82
2022/11/18 11:53:06;;;;;;;;;;;10.00;99.90;;;;;;1884459;76;20229;-80
2022/11/18 11:55:47;;;;;;;;;;;10.10;99.90;;;;;;1880374;76;20120;-79
2022/11/18 11:58:21;;;;;;;;;;;10.50;99.90;;;;;;1880723;73;20181;-81
2022/11/18 12:00:49;;;;;;;;;;;10.70;99.90;;;;;;1878471;76;20156;-81
2022/11/18 12:03:17;;;;;;;;;;;10.80;99.90;;;;;;1878207;76;20147;-82
2022/11/18 12:05:44;;;;;;;;;;;10.80;99.90;;;;;;1882752;76;20183;-82
2022/11/18 12:08:12;;;;;;;;;;;10.90;99.90;;;;;;1873418;76;20332;-82
2022/11/18 12:10:47;;;;;;;;;;;11.00;99.90;;;;;;1882578;76;20327;-80
2022/11/18 12:13:15;;;;;;;;;;;11.00;99.90;;;;;;1882320;76;20132;-79
2022/11/18 12:15:43;;;;;;;;;;;11.00;99.90;;;;;;1881033;76;20353;-80
2022/11/18 12:18:28;;;;;;;;;;;10.90;99.90;;;;;;1881520;76;20124;-80
2022/11/18 12:20:55;;;;;;;;;;;10.80;99.90;;;;;;1878915;76;20105;-80
2022/11/18 12:23:23;;;;;;;;;;;10.70;99.90;;;;;;1879282;76;20129;-80
2022/11/18 12:25:54;;;;;;;;;;;10.70;99.90;;;;;;1878437;76;20112;-79
2022/11/18 12:28:28;;;;;;;;;;;10.50;99.90;;;;;;1877395;76;20170;-80
2022/11/18 12:31:13;;;;;;;;;;;10.40;99.90;;;;;;1881071;76;20155;-80
2022/11/18 12:33:43;;;;;;;;;;;10.40;99.90;;;;;;1877539;76;20105;-79
2022/11/18 12:36:10;;;;;;;;;;;10.30;99.90;;;;;;1880699;76;20155;-78
2022/11/18 12:38:37;;;;;;;;;;;10.30;99.90;;;;;;1881097;76;20347;-77
2022/11/18 12:43:45;;;;;;;;;;;10.20;99.90;;;;;;1880749;76;20184;-79
2022/11/18 12:43:45;;;;;;;;;;;10.20;99.90;;;;;;1853237;76;20142;-76
2022/11/18 12:46:14;;;;;;;;;;;10.00;99.90;;;;;;1877905;76;20112;-77
2022/11/18 12:48:40;;;;;;;;;;;9.90;99.90;;;;;;1869402;75;20374;-79
2022/11/18 12:51:12;;;;;;;;;;;9.70;99.90;;;;;;1881705;76;20180;-78
2022/11/18 12:53:39;;;;;;;;;;;9.70;99.90;;;;;;1876355;76;20151;-84
2022/11/18 12:56:22;;;;;;;;;;;9.60;99.90;;;;;;1883167;76;20120;-82
2022/11/18 12:58:52;;;;;;;;;;;9.60;99.90;;;;;;1878902;76;20128;-83
2022/11/18 13:01:21;;;;;;;;;;;9.60;99.90;;;;;;1884353;75;20323;-82
2022/11/18 13:03:48;;;;;;;;;;;9.60;99.90;;;;;;1876773;76;20162;-83
2022/11/18 13:06:28;;;;;;;;;;;9.60;99.90;;;;;;1879474;76;20182;-86
2022/11/18 13:08:58;;;;;;;;;;;9.60;99.90;;;;;;1877745;76;20112;-84
2022/11/18 13:11:43;;;;;;;;;;;9.70;99.90;;;;;;1881515;74;20128;-83
2022/11/18 13:19:55;;;;;;;;;;;9.60;99.90;;;;;;1880245;76;20109;-86
2022/11/18 13:25:08;;;;;;;;;;;9.70;99.90;;;;;;1884622;76;20148;-84
2022/11/18 13:27:43;;;;;;;;;;;9.90;99.90;;;;;;1882663;75;20120;-86
2022/11/18 13:30:11;;;;;;;;;;;10.00;99.90;;;;;;1885376;76;20112;-81
2022/11/18 13:32:39;;;;;;;;;;;10.10;99.90;;;;;;1882180;76;20179;-84
2022/11/18 13:35:13;;;;;;;;;;;10.20;99.90;;;;;;1881832;75;20139;-84
2022/11/18 13:37:50;;;;;;;;;;;10.20;99.90;;;;;;1880805;76;20112;-83
2022/11/18 13:40:21;;;;;;;;;;;10.20;99.90;;;;;;1878891;76;20113;-84
2022/11/18 13:42:48;;;;;;;;;;;10.40;99.90;;;;;;1882537;76;20167;-86
2022/11/18 13:45:17;;;;;;;;;;;10.50;99.90;;;;;;1876824;75;20155;-83
2022/11/18 13:47:48;;;;;;;;;;;10.50;99.90;;;;;;1881506;76;20112;-83
2022/11/18 13:50:18;;;;;;;;;;;10.50;99.90;;;;;;1883151;76;20097;-85
2022/11/18 13:53:03;;;;;;;;;;;10.50;99.90;;;;;;1876377;75;20144;-83
2022/11/18 13:55:38;;;;;;;;;;;10.40;99.90;;;;;;1882623;76;20105;-83
2022/11/18 13:58:21;;;;;;;;;;;10.30;99.90;;;;;;1877401;74;20340;-80
2022/11/18 14:01:02;;;;;;;;;;;10.30;99.90;;;;;;1879113;75;20269;-87
2022/11/18 14:03:42;;;;;;;;;;;10.40;99.90;;;;;;1868554;76;20148;-81
2022/11/18 14:06:10;;;;;;;;;;;10.60;99.90;;;;;;1881930;76;20158;-79
2022/11/18 14:08:38;;;;;;;;;;;10.60;99.90;;;;;;1879370;76;20116;-80
2022/11/18 14:11:05;;;;;;;;;;;10.90;99.90;;;;;;1876412;76;20116;-79
2022/11/18 14:13:32;;;;;;;;;;;11.60;99.90;;;;;;1876261;76;20175;-80
2022/11/18 14:16:19;;;;;;;;;;;12.20;99.90;;;;;;1878669;76;20195;-79
2022/11/18 14:18:48;;;;;;;;;;;12.70;99.90;;;;;;1882939;76;20206;-80
2022/11/18 14:21:14;;;;;;;;;;;12.60;99.90;;;;;;1881680;75;20109;-78
2022/11/18 14:23:42;;;;;;;;;;;12.40;99.90;;;;;;1882203;76;20357;-80
2022/11/18 14:26:09;;;;;;;;;;;12.40;99.90;;;;;;1875811;76;20378;-81
2022/11/18 14:28:36;;;;;;;;;;;12.30;99.90;;;;;;1877181;76;20112;-79
2022/11/18 14:31:16;;;;;;;;;;;12.10;99.90;;;;;;1882202;76;20120;-81
2022/11/18 14:33:42;;;;;;;;;;;12.00;99.90;;;;;;1886266;73;20120;-77
2022/11/18 14:36:13;;;;;;;;;;;11.80;99.90;;;;;;1881814;76;20336;-78
2022/11/18 14:38:47;;;;;;;;;;;11.50;99.90;;;;;;1875852;74;20189;-79
2022/11/18 14:41:15;;;;;;;;;;;11.80;99.90;;;;;;1882089;76;20146;-79
2022/11/18 14:43:44;;;;;;;;;;;12.00;99.90;;;;;;1882939;76;20120;-78
2022/11/18 14:46:11;;;;;;;;;;;12.20;99.90;;;;;;1875498;75;20321;-79
2022/11/18 14:48:38;;;;;;;;;;;12.30;99.90;;;;;;1880612;75;20179;-78
2022/11/18 14:51:05;;;;;;;;;;;12.10;99.90;;;;;;1878353;76;20332;-80
2022/11/18 14:53:32;;;;;;;;;;;12.20;99.90;;;;;;1874833;76;20151;-79
2022/11/18 14:55:59;;;;;;;;;;;12.30;99.90;;;;;;1881838;76;20124;-79
2022/11/18 14:58:25;;;;;;;;;;;12.20;99.90;;;;;;1876791;76;20148;-81